sensor_id;sensor_type;location;lat;lon;timestamp;temperature;humidity
64833;HTU21D;51290;45.060;38.948;2023-11-21T00:01:54;5.48;80.04
64833;HTU21D;51290;45.060;38.948;2023-11-21T00:04:21;5.47;80.08
64833;HTU21D;51290;45.060;38.948;2023-11-21T00:06:47;5.46;80.07
64833;HTU21D;51290;45.060;38.948;2023-11-21T00:09:13;5.43;80.08
64833;HTU21D;51290;45.060;38.948;2023-11-21T00:11:41;5.38;80.09
64833;HTU21D;51290;45.060;38.948;2023-11-21T00:14:07;5.38;80.20
64833;HTU21D;51290;45.060;38.948;2023-11-21T00:16:34;5.35;80.25
64833;HTU21D;51290;45.060;38.948;2023-11-21T00:19:00;5.34;80.30
64833;HTU21D;51290;45.060;38.948;2023-11-21T00:21:26;5.33;80.33
64833;HTU21D;51290;45.060;38.948;2023-11-21T00:23:52;5.33;80.37
64833;HTU21D;51290;45.060;38.948;2023-11-21T00:26:18;5.32;80.36
64833;HTU21D;51290;45.060;38.948;2023-11-21T00:28:50;5.28;80.37
64833;HTU21D;51290;45.060;38.948;2023-11-21T00:31:16;5.27;80.34
64833;HTU21D;51290;45.060;38.948;2023-11-21T00:33:42;5.24;80.39
64833;HTU21D;51290;45.060;38.948;2023-11-21T00:36:09;5.22;80.36
64833;HTU21D;51290;45.060;38.948;2023-11-21T00:38:36;5.20;80.40
64833;HTU21D;51290;45.060;38.948;2023-11-21T00:41:02;5.18;80.43
64833;HTU21D;51290;45.060;38.948;2023-11-21T00:43:28;5.16;80.52
64833;HTU21D;51290;45.060;38.948;2023-11-21T00:45:54;5.15;80.56
64833;HTU21D;51290;45.060;38.948;2023-11-21T00:48:20;5.13;80.55
64833;HTU21D;51290;45.060;38.948;2023-11-21T00:50:47;5.12;80.56
64833;HTU21D;51290;45.060;38.948;2023-11-21T00:53:13;5.12;80.57
64833;HTU21D;51290;45.060;38.948;2023-11-21T00:55:38;5.11;80.59
64833;HTU21D;51290;45.060;38.948;2023-11-21T00:58:06;5.11;80.65
64833;HTU21D;51290;45.060;38.948;2023-11-21T01:00:33;5.10;80.71
64833;HTU21D;51290;45.060;38.948;2023-11-21T01:03:00;5.09;80.73
64833;HTU21D;51290;45.060;38.948;2023-11-21T01:05:26;5.09;80.74
64833;HTU21D;51290;45.060;38.948;2023-11-21T01:07:52;5.08;80.73
64833;HTU21D;51290;45.060;38.948;2023-11-21T01:10:18;5.06;80.75
64833;HTU21D;51290;45.060;38.948;2023-11-21T01:12:44;5.05;80.73
64833;HTU21D;51290;45.060;38.948;2023-11-21T01:15:10;5.01;80.76
64833;HTU21D;51290;45.060;38.948;2023-11-21T01:17:38;4.96;80.80
64833;HTU21D;51290;45.060;38.948;2023-11-21T01:20:05;4.93;80.85
64833;HTU21D;51290;45.060;38.948;2023-11-21T01:22:37;4.93;80.87
64833;HTU21D;51290;45.060;38.948;2023-11-21T01:25:03;4.89;80.97
64833;HTU21D;51290;45.060;38.948;2023-11-21T01:27:34;4.88;81.12
64833;HTU21D;51290;45.060;38.948;2023-11-21T01:30:01;4.89;81.20
64833;HTU21D;51290;45.060;38.948;2023-11-21T01:32:27;4.90;81.23
64833;HTU21D;51290;45.060;38.948;2023-11-21T01:34:54;4.92;81.22
64833;HTU21D;51290;45.060;38.948;2023-11-21T01:37:23;4.91;81.18
64833;HTU21D;51290;45.060;38.948;2023-11-21T01:39:50;4.91;81.20
64833;HTU21D;51290;45.060;38.948;2023-11-21T01:42:15;4.91;81.21
64833;HTU21D;51290;45.060;38.948;2023-11-21T01:44:41;4.90;81.20
64833;HTU21D;51290;45.060;38.948;2023-11-21T01:47:08;4.88;81.29
64833;HTU21D;51290;45.060;38.948;2023-11-21T01:49:35;4.89;81.35
64833;HTU21D;51290;45.060;38.948;2023-11-21T01:52:02;4.90;81.37
64833;HTU21D;51290;45.060;38.948;2023-11-21T01:54:30;4.91;81.38
64833;HTU21D;51290;45.060;38.948;2023-11-21T01:56:58;4.92;81.35
64833;HTU21D;51290;45.060;38.948;2023-11-21T01:59:35;4.91;81.33
64833;HTU21D;51290;45.060;38.948;2023-11-21T02:02:07;4.92;81.33
64833;HTU21D;51290;45.060;38.948;2023-11-21T02:04:34;4.92;81.36
64833;HTU21D;51290;45.060;38.948;2023-11-21T02:07:03;4.93;81.39
64833;HTU21D;51290;45.060;38.948;2023-11-21T02:09:31;4.93;81.45
64833;HTU21D;51290;45.060;38.948;2023-11-21T02:11:58;4.94;81.42
64833;HTU21D;51290;45.060;38.948;2023-11-21T02:14:25;4.93;81.36
64833;HTU21D;51290;45.060;38.948;2023-11-21T02:16:53;4.90;81.34
64833;HTU21D;51290;45.060;38.948;2023-11-21T02:19:20;4.89;81.36
64833;HTU21D;51290;45.060;38.948;2023-11-21T02:21:52;4.90;81.34
64833;HTU21D;51290;45.060;38.948;2023-11-21T02:24:20;4.90;81.39
64833;HTU21D;51290;45.060;38.948;2023-11-21T02:26:46;4.89;81.39
64833;HTU21D;51290;45.060;38.948;2023-11-21T02:29:12;4.91;81.40
64833;HTU21D;51290;45.060;38.948;2023-11-21T02:31:39;4.89;81.38
64833;HTU21D;51290;45.060;38.948;2023-11-21T02:34:17;4.88;81.37
64833;HTU21D;51290;45.060;38.948;2023-11-21T02:36:44;4.87;81.44
64833;HTU21D;51290;45.060;38.948;2023-11-21T02:39:11;4.87;81.49
64833;HTU21D;51290;45.060;38.948;2023-11-21T02:41:37;4.87;81.49
64833;HTU21D;51290;45.060;38.948;2023-11-21T02:44:05;4.87;81.51
64833;HTU21D;51290;45.060;38.948;2023-11-21T02:46:32;4.87;81.52
64833;HTU21D;51290;45.060;38.948;2023-11-21T02:49:03;4.87;81.49
64833;HTU21D;51290;45.060;38.948;2023-11-21T02:51:32;4.89;81.49
64833;HTU21D;51290;45.060;38.948;2023-11-21T02:53:58;4.88;81.49
64833;HTU21D;51290;45.060;38.948;2023-11-21T02:56:27;4.89;81.50
64833;HTU21D;51290;45.060;38.948;2023-11-21T02:58:55;4.89;81.50
64833;HTU21D;51290;45.060;38.948;2023-11-21T03:01:22;4.89;81.54
64833;HTU21D;51290;45.060;38.948;2023-11-21T03:03:49;4.90;81.54
64833;HTU21D;51290;45.060;38.948;2023-11-21T03:06:18;4.90;81.55
64833;HTU21D;51290;45.060;38.948;2023-11-21T03:08:44;4.90;81.54
64833;HTU21D;51290;45.060;38.948;2023-11-21T03:11:10;4.91;81.51
64833;HTU21D;51290;45.060;38.948;2023-11-21T03:13:36;4.90;81.47
64833;HTU21D;51290;45.060;38.948;2023-11-21T03:16:02;4.90;81.48
64833;HTU21D;51290;45.060;38.948;2023-11-21T03:18:28;4.88;81.47
64833;HTU21D;51290;45.060;38.948;2023-11-21T03:20:54;4.86;81.47
64833;HTU21D;51290;45.060;38.948;2023-11-21T03:23:20;4.84;81.51
64833;HTU21D;51290;45.060;38.948;2023-11-21T03:25:46;4.86;81.50
64833;HTU21D;51290;45.060;38.948;2023-11-21T03:28:12;4.84;81.50
64833;HTU21D;51290;45.060;38.948;2023-11-21T03:30:38;4.82;81.56
64833;HTU21D;51290;45.060;38.948;2023-11-21T03:33:04;4.82;81.62
64833;HTU21D;51290;45.060;38.948;2023-11-21T03:35:30;4.80;81.61
64833;HTU21D;51290;45.060;38.948;2023-11-21T03:37:57;4.82;81.60
64833;HTU21D;51290;45.060;38.948;2023-11-21T03:40:23;4.82;81.60
64833;HTU21D;51290;45.060;38.948;2023-11-21T03:42:49;4.81;81.62
64833;HTU21D;51290;45.060;38.948;2023-11-21T03:45:14;4.82;81.62
64833;HTU21D;51290;45.060;38.948;2023-11-21T03:47:43;4.82;81.66
64833;HTU21D;51290;45.060;38.948;2023-11-21T03:50:09;4.83;81.68
64833;HTU21D;51290;45.060;38.948;2023-11-21T03:52:37;4.84;81.66
64833;HTU21D;51290;45.060;38.948;2023-11-21T03:55:03;4.86;81.62
64833;HTU21D;51290;45.060;38.948;2023-11-21T03:57:29;4.83;81.60
64833;HTU21D;51290;45.060;38.948;2023-11-21T03:59:55;4.81;81.57
64833;HTU21D;51290;45.060;38.948;2023-11-21T04:02:21;4.79;81.59
64833;HTU21D;51290;45.060;38.948;2023-11-21T04:04:47;4.78;81.62
64833;HTU21D;51290;45.060;38.948;2023-11-21T04:07:13;4.78;81.66
64833;HTU21D;51290;45.060;38.948;2023-11-21T04:09:40;4.78;81.64
64833;HTU21D;51290;45.060;38.948;2023-11-21T04:12:07;4.77;81.65
64833;HTU21D;51290;45.060;38.948;2023-11-21T04:14:35;4.78;81.63
64833;HTU21D;51290;45.060;38.948;2023-11-21T04:17:01;4.77;81.67
64833;HTU21D;51290;45.060;38.948;2023-11-21T04:19:27;4.76;81.62
64833;HTU21D;51290;45.060;38.948;2023-11-21T04:21:53;4.74;81.63
64833;HTU21D;51290;45.060;38.948;2023-11-21T04:24:19;4.74;81.70
64833;HTU21D;51290;45.060;38.948;2023-11-21T04:26:45;4.73;81.72
64833;HTU21D;51290;45.060;38.948;2023-11-21T04:29:11;4.71;81.75
64833;HTU21D;51290;45.060;38.948;2023-11-21T04:31:37;4.69;81.75
64833;HTU21D;51290;45.060;38.948;2023-11-21T04:34:03;4.68;81.77
64833;HTU21D;51290;45.060;38.948;2023-11-21T04:36:32;4.67;81.81
64833;HTU21D;51290;45.060;38.948;2023-11-21T04:38:58;4.67;81.84
64833;HTU21D;51290;45.060;38.948;2023-11-21T04:41:24;4.66;81.84
64833;HTU21D;51290;45.060;38.948;2023-11-21T04:43:50;4.64;81.91
64833;HTU21D;51290;45.060;38.948;2023-11-21T04:46:16;4.65;81.91
64833;HTU21D;51290;45.060;38.948;2023-11-21T04:48:42;4.64;81.97
64833;HTU21D;51290;45.060;38.948;2023-11-21T04:51:08;4.65;82.02
64833;HTU21D;51290;45.060;38.948;2023-11-21T04:53:34;4.65;82.03
64833;HTU21D;51290;45.060;38.948;2023-11-21T04:56:00;4.64;82.04
64833;HTU21D;51290;45.060;38.948;2023-11-21T04:58:27;4.65;82.06
64833;HTU21D;51290;45.060;38.948;2023-11-21T05:00:53;4.65;82.07
64833;HTU21D;51290;45.060;38.948;2023-11-21T05:03:19;4.65;82.07
64833;HTU21D;51290;45.060;38.948;2023-11-21T05:05:45;4.64;82.06
64833;HTU21D;51290;45.060;38.948;2023-11-21T05:08:11;4.66;82.10
64833;HTU21D;51290;45.060;38.948;2023-11-21T05:10:37;4.68;82.14
64833;HTU21D;51290;45.060;38.948;2023-11-21T05:13:05;4.71;82.12
64833;HTU21D;51290;45.060;38.948;2023-11-21T05:15:35;4.74;82.07
64833;HTU21D;51290;45.060;38.948;2023-11-21T05:18:01;4.73;82.04
64833;HTU21D;51290;45.060;38.948;2023-11-21T05:20:27;4.75;82.07
64833;HTU21D;51290;45.060;38.948;2023-11-21T05:22:53;4.74;82.07
64833;HTU21D;51290;45.060;38.948;2023-11-21T05:25:19;4.74;82.07
64833;HTU21D;51290;45.060;38.948;2023-11-21T05:27:46;4.71;82.12
64833;HTU21D;51290;45.060;38.948;2023-11-21T05:30:13;4.72;82.13
64833;HTU21D;51290;45.060;38.948;2023-11-21T05:32:40;4.69;82.17
64833;HTU21D;51290;45.060;38.948;2023-11-21T05:35:08;4.71;82.29
64833;HTU21D;51290;45.060;38.948;2023-11-21T05:37:44;4.72;82.30
64833;HTU21D;51290;45.060;38.948;2023-11-21T05:40:11;4.73;82.36
64833;HTU21D;51290;45.060;38.948;2023-11-21T05:42:39;4.77;82.38
64833;HTU21D;51290;45.060;38.948;2023-11-21T05:45:07;4.81;82.36
64833;HTU21D;51290;45.060;38.948;2023-11-21T05:50:07;4.91;82.28
64833;HTU21D;51290;45.060;38.948;2023-11-21T05:52:38;4.95;82.23
64833;HTU21D;51290;45.060;38.948;2023-11-21T05:55:07;4.98;82.20
64833;HTU21D;51290;45.060;38.948;2023-11-21T05:57:34;5.01;82.19
64833;HTU21D;51290;45.060;38.948;2023-11-21T06:00:05;5.02;82.11
64833;HTU21D;51290;45.060;38.948;2023-11-21T06:02:40;5.02;82.07
64833;HTU21D;51290;45.060;38.948;2023-11-21T06:05:07;5.03;82.07
64833;HTU21D;51290;45.060;38.948;2023-11-21T06:07:33;5.05;82.10
64833;HTU21D;51290;45.060;38.948;2023-11-21T06:09:59;5.05;82.10
64833;HTU21D;51290;45.060;38.948;2023-11-21T06:12:25;5.08;82.10
64833;HTU21D;51290;45.060;38.948;2023-11-21T06:14:51;5.09;82.07
64833;HTU21D;51290;45.060;38.948;2023-11-21T06:17:17;5.12;82.04
64833;HTU21D;51290;45.060;38.948;2023-11-21T06:19:44;5.13;82.01
64833;HTU21D;51290;45.060;38.948;2023-11-21T06:22:11;5.16;81.99
64833;HTU21D;51290;45.060;38.948;2023-11-21T06:24:37;5.17;81.96
64833;HTU21D;51290;45.060;38.948;2023-11-21T06:27:04;5.20;81.94
64833;HTU21D;51290;45.060;38.948;2023-11-21T06:29:30;5.23;81.94
64833;HTU21D;51290;45.060;38.948;2023-11-21T06:31:57;5.23;81.93
64833;HTU21D;51290;45.060;38.948;2023-11-21T06:34:24;5.26;81.92
64833;HTU21D;51290;45.060;38.948;2023-11-21T06:36:50;5.26;81.91
64833;HTU21D;51290;45.060;38.948;2023-11-21T06:39:17;5.26;81.88
64833;HTU21D;51290;45.060;38.948;2023-11-21T06:41:43;5.27;81.87
64833;HTU21D;51290;45.060;38.948;2023-11-21T06:44:09;5.28;81.88
64833;HTU21D;51290;45.060;38.948;2023-11-21T06:46:35;5.30;81.85
64833;HTU21D;51290;45.060;38.948;2023-11-21T06:49:01;5.30;81.84
64833;HTU21D;51290;45.060;38.948;2023-11-21T06:51:27;5.32;81.86
64833;HTU21D;51290;45.060;38.948;2023-11-21T06:53:54;5.32;81.85
64833;HTU21D;51290;45.060;38.948;2023-11-21T06:56:20;5.34;81.88
64833;HTU21D;51290;45.060;38.948;2023-11-21T06:58:48;5.34;81.85
64833;HTU21D;51290;45.060;38.948;2023-11-21T07:01:14;5.35;81.84
64833;HTU21D;51290;45.060;38.948;2023-11-21T07:03:41;5.36;81.85
64833;HTU21D;51290;45.060;38.948;2023-11-21T07:06:08;5.37;81.89
64833;HTU21D;51290;45.060;38.948;2023-11-21T07:08:34;5.40;81.93
64833;HTU21D;51290;45.060;38.948;2023-11-21T07:11:00;5.45;81.92
64833;HTU21D;51290;45.060;38.948;2023-11-21T07:13:26;5.47;81.90
64833;HTU21D;51290;45.060;38.948;2023-11-21T07:15:52;5.51;81.88
64833;HTU21D;51290;45.060;38.948;2023-11-21T07:18:18;5.56;81.87
64833;HTU21D;51290;45.060;38.948;2023-11-21T07:20:44;5.61;81.78
64833;HTU21D;51290;45.060;38.948;2023-11-21T07:23:09;5.66;81.79
64833;HTU21D;51290;45.060;38.948;2023-11-21T07:25:36;5.68;81.71
64833;HTU21D;51290;45.060;38.948;2023-11-21T07:28:02;5.72;81.63
64833;HTU21D;51290;45.060;38.948;2023-11-21T07:30:28;5.75;81.61
64833;HTU21D;51290;45.060;38.948;2023-11-21T07:32:54;5.76;81.62
64833;HTU21D;51290;45.060;38.948;2023-11-21T07:35:20;5.78;81.61
64833;HTU21D;51290;45.060;38.948;2023-11-21T07:37:46;5.80;81.57
64833;HTU21D;51290;45.060;38.948;2023-11-21T07:40:14;5.83;81.57
64833;HTU21D;51290;45.060;38.948;2023-11-21T07:42:41;5.85;81.50
64833;HTU21D;51290;45.060;38.948;2023-11-21T07:45:09;5.85;81.43
64833;HTU21D;51290;45.060;38.948;2023-11-21T07:47:35;5.85;81.44
64833;HTU21D;51290;45.060;38.948;2023-11-21T07:50:03;5.87;81.53
64833;HTU21D;51290;45.060;38.948;2023-11-21T07:52:29;5.92;81.55
64833;HTU21D;51290;45.060;38.948;2023-11-21T07:54:55;5.95;81.52
64833;HTU21D;51290;45.060;38.948;2023-11-21T07:57:21;5.98;81.54
64833;HTU21D;51290;45.060;38.948;2023-11-21T07:59:47;6.01;81.54
64833;HTU21D;51290;45.060;38.948;2023-11-21T08:02:14;6.04;81.49
64833;HTU21D;51290;45.060;38.948;2023-11-21T08:04:41;6.06;81.39
64833;HTU21D;51290;45.060;38.948;2023-11-21T08:07:07;6.08;81.33
64833;HTU21D;51290;45.060;38.948;2023-11-21T08:09:33;6.11;81.30
64833;HTU21D;51290;45.060;38.948;2023-11-21T08:12:00;6.13;81.30
64833;HTU21D;51290;45.060;38.948;2023-11-21T08:14:28;6.17;81.30
64833;HTU21D;51290;45.060;38.948;2023-11-21T08:16:54;6.22;81.27
64833;HTU21D;51290;45.060;38.948;2023-11-21T08:19:23;6.22;81.18
64833;HTU21D;51290;45.060;38.948;2023-11-21T08:21:51;6.21;81.13
64833;HTU21D;51290;45.060;38.948;2023-11-21T08:24:21;6.19;81.06
64833;HTU21D;51290;45.060;38.948;2023-11-21T08:26:47;6.19;80.91
64833;HTU21D;51290;45.060;38.948;2023-11-21T08:29:13;6.14;80.75
64833;HTU21D;51290;45.060;38.948;2023-11-21T08:31:39;6.10;80.75
64833;HTU21D;51290;45.060;38.948;2023-11-21T08:34:05;6.08;80.70
64833;HTU21D;51290;45.060;38.948;2023-11-21T08:36:31;6.05;80.59
64833;HTU21D;51290;45.060;38.948;2023-11-21T08:38:57;5.99;80.52
64833;HTU21D;51290;45.060;38.948;2023-11-21T08:41:23;5.96;80.54
64833;HTU21D;51290;45.060;38.948;2023-11-21T08:43:53;5.93;80.55
64833;HTU21D;51290;45.060;38.948;2023-11-21T08:46:20;5.93;80.54
64833;HTU21D;51290;45.060;38.948;2023-11-21T08:48:46;5.92;80.51
64833;HTU21D;51290;45.060;38.948;2023-11-21T08:51:12;5.93;80.44
64833;HTU21D;51290;45.060;38.948;2023-11-21T08:53:39;5.92;80.33
64833;HTU21D;51290;45.060;38.948;2023-11-21T08:56:06;5.90;80.25
64833;HTU21D;51290;45.060;38.948;2023-11-21T08:58:32;5.89;80.19
64833;HTU21D;51290;45.060;38.948;2023-11-21T09:00:58;5.86;80.15
64833;HTU21D;51290;45.060;38.948;2023-11-21T09:03:24;5.86;80.12
64833;HTU21D;51290;45.060;38.948;2023-11-21T09:05:50;5.87;80.09
64833;HTU21D;51290;45.060;38.948;2023-11-21T09:08:16;5.86;80.03
64833;HTU21D;51290;45.060;38.948;2023-11-21T09:10:42;5.86;80.06
64833;HTU21D;51290;45.060;38.948;2023-11-21T09:13:10;5.87;80.07
64833;HTU21D;51290;45.060;38.948;2023-11-21T09:15:38;5.90;80.07
64833;HTU21D;51290;45.060;38.948;2023-11-21T09:18:04;5.93;79.99
64833;HTU21D;51290;45.060;38.948;2023-11-21T09:20:30;5.95;79.90
64833;HTU21D;51290;45.060;38.948;2023-11-21T09:22:56;5.96;79.82
64833;HTU21D;51290;45.060;38.948;2023-11-21T09:25:22;5.98;79.94
64833;HTU21D;51290;45.060;38.948;2023-11-21T09:27:48;5.99;79.88
64833;HTU21D;51290;45.060;38.948;2023-11-21T09:30:15;6.00;79.80
64833;HTU21D;51290;45.060;38.948;2023-11-21T09:32:42;6.00;79.65
64833;HTU21D;51290;45.060;38.948;2023-11-21T09:35:11;5.97;79.55
64833;HTU21D;51290;45.060;38.948;2023-11-21T09:37:39;5.97;79.58
64833;HTU21D;51290;45.060;38.948;2023-11-21T09:40:09;5.98;79.65
64833;HTU21D;51290;45.060;38.948;2023-11-21T09:42:51;5.98;79.68
64833;HTU21D;51290;45.060;38.948;2023-11-21T09:45:33;6.00;79.65
64833;HTU21D;51290;45.060;38.948;2023-11-21T09:48:00;6.01;79.53
64833;HTU21D;51290;45.060;38.948;2023-11-21T09:50:27;6.01;79.53
64833;HTU21D;51290;45.060;38.948;2023-11-21T09:55:46;6.05;79.50
64833;HTU21D;51290;45.060;38.948;2023-11-21T09:58:14;6.07;79.53
64833;HTU21D;51290;45.060;38.948;2023-11-21T10:00:41;6.09;79.47
64833;HTU21D;51290;45.060;38.948;2023-11-21T10:03:08;6.09;79.52
64833;HTU21D;51290;45.060;38.948;2023-11-21T10:05:35;6.12;79.53
64833;HTU21D;51290;45.060;38.948;2023-11-21T10:08:03;6.14;79.51
64833;HTU21D;51290;45.060;38.948;2023-11-21T10:10:31;6.17;79.47
64833;HTU21D;51290;45.060;38.948;2023-11-21T10:13:02;6.24;79.40
64833;HTU21D;51290;45.060;38.948;2023-11-21T10:15:29;6.25;79.31
64833;HTU21D;51290;45.060;38.948;2023-11-21T10:17:56;6.30;79.40
64833;HTU21D;51290;45.060;38.948;2023-11-21T10:20:24;6.37;79.39
64833;HTU21D;51290;45.060;38.948;2023-11-21T10:22:51;6.41;79.21
64833;HTU21D;51290;45.060;38.948;2023-11-21T10:25:17;6.44;79.16
64833;HTU21D;51290;45.060;38.948;2023-11-21T10:27:48;6.50;79.17
64833;HTU21D;51290;45.060;38.948;2023-11-21T10:30:16;6.53;79.07
64833;HTU21D;51290;45.060;38.948;2023-11-21T10:32:43;6.54;78.89
64833;HTU21D;51290;45.060;38.948;2023-11-21T10:35:10;6.51;78.81
64833;HTU21D;51290;45.060;38.948;2023-11-21T10:37:39;6.48;78.87
64833;HTU21D;51290;45.060;38.948;2023-11-21T10:40:12;6.44;78.92
64833;HTU21D;51290;45.060;38.948;2023-11-21T10:42:38;6.40;78.90
64833;HTU21D;51290;45.060;38.948;2023-11-21T10:45:05;6.37;79.10
64833;HTU21D;51290;45.060;38.948;2023-11-21T10:47:41;6.34;79.16
64833;HTU21D;51290;45.060;38.948;2023-11-21T10:50:07;6.30;79.18
64833;HTU21D;51290;45.060;38.948;2023-11-21T10:52:42;6.24;79.14
64833;HTU21D;51290;45.060;38.948;2023-11-21T10:55:19;6.20;79.17
64833;HTU21D;51290;45.060;38.948;2023-11-21T10:57:48;6.17;79.31
64833;HTU21D;51290;45.060;38.948;2023-11-21T11:00:16;6.20;79.44
64833;HTU21D;51290;45.060;38.948;2023-11-21T11:02:46;6.25;79.57
64833;HTU21D;51290;45.060;38.948;2023-11-21T11:05:16;6.36;79.69
64833;HTU21D;51290;45.060;38.948;2023-11-21T11:07:44;6.45;79.68
64833;HTU21D;51290;45.060;38.948;2023-11-21T11:10:13;6.60;79.71
64833;HTU21D;51290;45.060;38.948;2023-11-21T11:12:46;6.71;79.59
64833;HTU21D;51290;45.060;38.948;2023-11-21T11:15:13;6.76;79.37
64833;HTU21D;51290;45.060;38.948;2023-11-21T11:17:40;6.80;79.30
64833;HTU21D;51290;45.060;38.948;2023-11-21T11:20:11;6.84;79.34
64833;HTU21D;51290;45.060;38.948;2023-11-21T11:22:57;6.90;79.39
64833;HTU21D;51290;45.060;38.948;2023-11-21T11:28:21;7.08;79.26
64833;HTU21D;51290;45.060;38.948;2023-11-21T11:31:46;7.13;79.15
64833;HTU21D;51290;45.060;38.948;2023-11-21T11:34:30;7.16;79.01
64833;HTU21D;51290;45.060;38.948;2023-11-21T11:37:06;7.13;78.90
64833;HTU21D;51290;45.060;38.948;2023-11-21T11:39:41;7.11;78.83
64833;HTU21D;51290;45.060;38.948;2023-11-21T11:42:17;7.07;78.83
64833;HTU21D;51290;45.060;38.948;2023-11-21T11:50:12;6.85;78.85
64833;HTU21D;51290;45.060;38.948;2023-11-21T11:52:40;6.78;78.96
64833;HTU21D;51290;45.060;38.948;2023-11-21T11:55:14;6.71;79.01
64833;HTU21D;51290;45.060;38.948;2023-11-21T11:57:42;6.65;79.13
64833;HTU21D;51290;45.060;38.948;2023-11-21T12:00:19;6.57;79.22
64833;HTU21D;51290;45.060;38.948;2023-11-21T12:02:48;6.46;79.01
64833;HTU21D;51290;45.060;38.948;2023-11-21T12:05:18;6.36;79.06
64833;HTU21D;51290;45.060;38.948;2023-11-21T12:10:15;6.26;79.45
64833;HTU21D;51290;45.060;38.948;2023-11-21T12:12:47;6.26;79.60
64833;HTU21D;51290;45.060;38.948;2023-11-21T12:15:14;6.27;79.67
64833;HTU21D;51290;45.060;38.948;2023-11-21T12:17:44;6.28;79.71
64833;HTU21D;51290;45.060;38.948;2023-11-21T12:20:13;6.27;79.78
64833;HTU21D;51290;45.060;38.948;2023-11-21T12:23:03;6.28;79.85
64833;HTU21D;51290;45.060;38.948;2023-11-21T12:25:30;6.30;79.94
64833;HTU21D;51290;45.060;38.948;2023-11-21T12:27:58;6.31;80.02
64833;HTU21D;51290;45.060;38.948;2023-11-21T12:30:35;6.33;80.07
64833;HTU21D;51290;45.060;38.948;2023-11-21T12:33:02;6.35;80.20
64833;HTU21D;51290;45.060;38.948;2023-11-21T12:35:32;6.39;80.27
64833;HTU21D;51290;45.060;38.948;2023-11-21T12:38:02;6.44;80.27
64833;HTU21D;51290;45.060;38.948;2023-11-21T12:40:29;6.50;80.24
64833;HTU21D;51290;45.060;38.948;2023-11-21T12:43:00;6.53;80.22
64833;HTU21D;51290;45.060;38.948;2023-11-21T12:45:28;6.56;80.18
64833;HTU21D;51290;45.060;38.948;2023-11-21T12:48:05;6.58;80.11
64833;HTU21D;51290;45.060;38.948;2023-11-21T12:50:34;6.59;79.99
64833;HTU21D;51290;45.060;38.948;2023-11-21T12:53:05;6.54;79.96
64833;HTU21D;51290;45.060;38.948;2023-11-21T12:55:33;6.54;80.01
64833;HTU21D;51290;45.060;38.948;2023-11-21T12:58:04;6.54;80.01
64833;HTU21D;51290;45.060;38.948;2023-11-21T13:00:45;6.53;79.96
64833;HTU21D;51290;45.060;38.948;2023-11-21T13:03:13;6.55;79.93
64833;HTU21D;51290;45.060;38.948;2023-11-21T13:05:44;6.56;79.91
64833;HTU21D;51290;45.060;38.948;2023-11-21T13:08:12;6.56;79.90
64833;HTU21D;51290;45.060;38.948;2023-11-21T13:10:43;6.58;79.82
64833;HTU21D;51290;45.060;38.948;2023-11-21T13:13:13;6.58;79.79
64833;HTU21D;51290;45.060;38.948;2023-11-21T13:15:56;6.58;79.78
64833;HTU21D;51290;45.060;38.948;2023-11-21T13:18:23;6.56;79.73
64833;HTU21D;51290;45.060;38.948;2023-11-21T13:20:49;6.57;79.75
64833;HTU21D;51290;45.060;38.948;2023-11-21T13:23:16;6.56;79.75
64833;HTU21D;51290;45.060;38.948;2023-11-21T13:25:42;6.56;79.72
64833;HTU21D;51290;45.060;38.948;2023-11-21T13:28:11;6.55;79.72
64833;HTU21D;51290;45.060;38.948;2023-11-21T13:30:38;6.56;79.70
64833;HTU21D;51290;45.060;38.948;2023-11-21T13:33:06;6.54;79.66
64833;HTU21D;51290;45.060;38.948;2023-11-21T13:35:34;6.53;79.61
64833;HTU21D;51290;45.060;38.948;2023-11-21T13:38:11;6.51;79.60
64833;HTU21D;51290;45.060;38.948;2023-11-21T13:40:41;6.51;79.60
64833;HTU21D;51290;45.060;38.948;2023-11-21T13:43:13;6.49;79.55
64833;HTU21D;51290;45.060;38.948;2023-11-21T13:45:43;6.46;79.48
64833;HTU21D;51290;45.060;38.948;2023-11-21T13:48:11;6.42;79.43
64833;HTU21D;51290;45.060;38.948;2023-11-21T13:50:40;6.41;79.43
64833;HTU21D;51290;45.060;38.948;2023-11-21T13:53:14;6.39;79.42
64833;HTU21D;51290;45.060;38.948;2023-11-21T13:55:49;6.37;79.41
64833;HTU21D;51290;45.060;38.948;2023-11-21T13:58:16;6.36;79.35
64833;HTU21D;51290;45.060;38.948;2023-11-21T14:00:49;6.34;79.35
64833;HTU21D;51290;45.060;38.948;2023-11-21T14:03:24;6.33;79.36
64833;HTU21D;51290;45.060;38.948;2023-11-21T14:06:03;6.29;79.32
64833;HTU21D;51290;45.060;38.948;2023-11-21T14:08:39;6.29;79.34
64833;HTU21D;51290;45.060;38.948;2023-11-21T14:11:05;6.27;79.30
64833;HTU21D;51290;45.060;38.948;2023-11-21T14:13:32;6.24;79.30
64833;HTU21D;51290;45.060;38.948;2023-11-21T14:15:59;6.23;79.27
64833;HTU21D;51290;45.060;38.948;2023-11-21T14:18:27;6.20;79.22
64833;HTU21D;51290;45.060;38.948;2023-11-21T14:20:59;6.16;79.13
64833;HTU21D;51290;45.060;38.948;2023-11-21T14:23:25;6.13;78.98
64833;HTU21D;51290;45.060;38.948;2023-11-21T14:25:51;6.08;78.92
64833;HTU21D;51290;45.060;38.948;2023-11-21T14:28:18;6.06;78.83
64833;HTU21D;51290;45.060;38.948;2023-11-21T14:30:48;6.01;78.72
64833;HTU21D;51290;45.060;38.948;2023-11-21T14:33:14;5.97;78.63
64833;HTU21D;51290;45.060;38.948;2023-11-21T14:35:42;5.91;78.55
64833;HTU21D;51290;45.060;38.948;2023-11-21T14:38:09;5.80;78.43
64833;HTU21D;51290;45.060;38.948;2023-11-21T14:40:36;5.71;78.42
64833;HTU21D;51290;45.060;38.948;2023-11-21T14:43:02;5.61;78.40
64833;HTU21D;51290;45.060;38.948;2023-11-21T14:45:32;5.53;78.51
64833;HTU21D;51290;45.060;38.948;2023-11-21T14:47:58;5.48;78.63
64833;HTU21D;51290;45.060;38.948;2023-11-21T14:50:30;5.42;78.69
64833;HTU21D;51290;45.060;38.948;2023-11-21T14:53:15;5.39;78.75
64833;HTU21D;51290;45.060;38.948;2023-11-21T14:55:41;5.37;78.70
64833;HTU21D;51290;45.060;38.948;2023-11-21T14:58:17;5.34;78.58
64833;HTU21D;51290;45.060;38.948;2023-11-21T15:00:57;5.27;78.47
64833;HTU21D;51290;45.060;38.948;2023-11-21T15:03:25;5.21;78.47
64833;HTU21D;51290;45.060;38.948;2023-11-21T15:06:01;5.12;78.47
64833;HTU21D;51290;45.060;38.948;2023-11-21T15:08:52;5.05;78.53
64833;HTU21D;51290;45.060;38.948;2023-11-21T15:11:39;4.98;78.64
64833;HTU21D;51290;45.060;38.948;2023-11-21T15:14:05;4.93;78.70
64833;HTU21D;51290;45.060;38.948;2023-11-21T15:16:37;4.92;78.81
64833;HTU21D;51290;45.060;38.948;2023-11-21T15:19:09;4.91;78.86
64833;HTU21D;51290;45.060;38.948;2023-11-21T15:21:37;4.92;78.89
64833;HTU21D;51290;45.060;38.948;2023-11-21T15:24:04;4.95;78.92
64833;HTU21D;51290;45.060;38.948;2023-11-21T15:26:30;5.01;78.95
64833;HTU21D;51290;45.060;38.948;2023-11-21T15:28:56;5.06;78.95
64833;HTU21D;51290;45.060;38.948;2023-11-21T15:31:22;5.12;78.94
64833;HTU21D;51290;45.060;38.948;2023-11-21T15:33:51;5.20;78.86
64833;HTU21D;51290;45.060;38.948;2023-11-21T15:36:19;5.26;78.79
64833;HTU21D;51290;45.060;38.948;2023-11-21T15:38:45;5.32;78.65